createdAt,value
2017-10-13T00:04:26.441Z,99.90
2017-10-13T00:09:29.635Z,99.90
2017-10-13T00:14:32.820Z,99.90
2017-10-13T00:19:35.999Z,99.90
2017-10-13T00:24:39.941Z,99.90
2017-10-13T00:29:43.123Z,99.90
2017-10-13T00:34:47.095Z,99.90
2017-10-13T00:39:50.282Z,99.90
2017-10-13T00:44:53.483Z,99.90
2017-10-13T00:49:56.678Z,99.90
2017-10-13T00:54:59.877Z,99.90
2017-10-13T01:00:03.025Z,99.90
2017-10-13T01:05:06.239Z,99.90
2017-10-13T01:10:09.394Z,99.90
2017-10-13T01:15:12.575Z,99.90
2017-10-13T01:20:15.725Z,99.90
2017-10-13T01:25:18.917Z,99.90
2017-10-13T01:30:22.140Z,99.90
2017-10-13T01:35:25.345Z,99.90
2017-10-13T01:40:28.623Z,99.90
2017-10-13T01:45:32.582Z,99.90
2017-10-13T01:50:35.765Z,99.90
2017-10-13T01:55:39.063Z,99.90
2017-10-13T02:00:43.058Z,99.90
2017-10-13T02:05:46.227Z,99.90
2017-10-13T02:10:49.429Z,99.90
2017-10-13T02:15:52.649Z,99.90
2017-10-13T02:20:56.078Z,99.90
2017-10-13T02:25:59.254Z,99.90
2017-10-13T02:31:02.413Z,99.90
2017-10-13T02:36:06.382Z,99.90
2017-10-13T02:41:09.563Z,99.90
2017-10-13T02:46:13.538Z,99.90
2017-10-13T02:51:16.702Z,99.90
2017-10-13T02:56:19.885Z,99.90
2017-10-13T03:01:23.830Z,99.90
2017-10-13T03:06:27.030Z,99.90
2017-10-13T03:11:30.986Z,99.90
2017-10-13T03:16:34.161Z,99.90
2017-10-13T03:21:37.549Z,99.90
2017-10-13T03:26:40.833Z,99.90
2017-10-13T03:31:44.033Z,99.90
2017-10-13T03:36:47.396Z,99.90
2017-10-13T03:41:51.335Z,99.90
2017-10-13T03:46:55.405Z,99.90
2017-10-13T03:51:58.573Z,99.90
2017-10-13T03:57:01.753Z,99.90
2017-10-13T04:02:05.858Z,99.90
2017-10-13T04:07:09.228Z,99.90
2017-10-13T04:12:12.410Z,99.90
2017-10-13T04:17:15.593Z,99.90
2017-10-13T04:22:19.756Z,99.90
2017-10-13T04:27:22.946Z,99.90
2017-10-13T04:32:26.894Z,99.90
2017-10-13T04:37:30.057Z,99.90
2017-10-13T04:42:33.260Z,99.90
2017-10-13T04:47:36.433Z,99.90
2017-10-13T04:52:39.621Z,99.90
2017-10-13T04:57:42.806Z,99.90
2017-10-13T05:02:46.010Z,99.90
2017-10-13T05:07:49.216Z,99.90
2017-10-13T05:12:53.161Z,99.90
2017-10-13T05:17:56.358Z,99.90
2017-10-13T05:22:59.531Z,99.90
2017-10-13T05:28:03.481Z,99.90
2017-10-13T05:33:07.414Z,99.90
2017-10-13T05:38:10.607Z,99.90
2017-10-13T05:43:13.766Z,99.90
2017-10-13T05:48:16.946Z,99.90
2017-10-13T05:53:20.142Z,99.90
2017-10-13T05:58:23.328Z,99.90
2017-10-13T06:03:27.255Z,99.90
2017-10-13T06:08:30.436Z,99.90
2017-10-13T06:13:33.633Z,99.90
2017-10-13T06:18:37.030Z,99.90
2017-10-13T06:23:40.221Z,99.90
2017-10-13T06:28:43.421Z,99.90
2017-10-13T06:33:46.650Z,99.90
2017-10-13T06:38:49.889Z,99.90
2017-10-13T06:43:53.134Z,99.90
2017-10-13T06:48:56.328Z,99.90
2017-10-13T06:53:59.518Z,99.90
2017-10-13T06:59:03.467Z,99.90
2017-10-13T07:04:06.628Z,99.90
2017-10-13T07:09:09.825Z,99.90
2017-10-13T07:14:13.208Z,99.90
2017-10-13T07:19:16.377Z,99.90
2017-10-13T07:24:19.738Z,99.90
2017-10-13T07:29:22.926Z,99.90
2017-10-13T07:34:26.132Z,99.90
2017-10-13T07:39:29.313Z,99.90
2017-10-13T07:44:32.510Z,99.90
2017-10-13T07:49:36.450Z,99.90
2017-10-13T07:54:39.648Z,99.90
2017-10-13T07:59:42.849Z,99.90
2017-10-13T08:04:46.825Z,99.90
2017-10-13T08:09:50.143Z,99.90
2017-10-13T08:14:53.351Z,99.90
2017-10-13T08:19:56.586Z,99.90
2017-10-13T08:25:00.591Z,99.90
2017-10-13T08:30:03.774Z,99.90
2017-10-13T08:35:07.273Z,99.90
2017-10-13T08:40:10.494Z,99.90
2017-10-13T08:45:13.691Z,99.90
2017-10-13T08:50:18.166Z,99.90
2017-10-13T08:55:22.130Z,99.90
2017-10-13T09:00:25.310Z,99.90
2017-10-13T09:05:29.408Z,99.90
2017-10-13T09:10:33.725Z,99.90
2017-10-13T09:15:37.083Z,97.60
2017-10-13T09:20:41.496Z,95.80
2017-10-13T09:25:44.755Z,95.80
2017-10-13T09:30:47.953Z,95.60
2017-10-13T09:35:51.158Z,94.50
2017-10-13T09:40:54.329Z,95.30
2017-10-13T09:45:58.273Z,96.90
2017-10-13T09:51:01.450Z,96.80
2017-10-13T09:56:04.638Z,95.20
2017-10-13T10:01:08.142Z,95.10
2017-10-13T10:06:11.352Z,94.10
2017-10-13T10:11:14.535Z,94.30
2017-10-13T10:16:17.717Z,91.90
2017-10-13T10:21:20.925Z,91.80
2017-10-13T10:26:24.108Z,91.40
2017-10-13T10:31:27.494Z,90.50
2017-10-13T10:36:30.702Z,90.00
2017-10-13T10:41:33.912Z,90.10
2017-10-13T10:46:37.322Z,91.00
2017-10-13T10:51:40.528Z,90.20
2017-10-13T10:56:43.941Z,89.00
2017-10-13T11:01:47.205Z,88.70
2017-10-13T11:06:50.421Z,88.10
2017-10-13T11:11:53.889Z,87.60
2017-10-13T11:16:57.071Z,85.40
2017-10-13T11:22:00.819Z,84.00
2017-10-13T11:27:04.767Z,83.60
2017-10-13T11:32:07.998Z,82.80
2017-10-13T11:37:11.221Z,82.40
2017-10-13T11:42:14.448Z,81.20
2017-10-13T11:47:17.606Z,81.60
2017-10-13T11:52:20.953Z,81.20
2017-10-13T11:57:24.237Z,80.70
2017-10-13T12:02:27.453Z,80.70
2017-10-13T12:07:30.655Z,80.70
2017-10-13T12:12:33.909Z,81.40
2017-10-13T12:17:37.999Z,79.90
2017-10-13T12:22:41.192Z,80.00
2017-10-13T12:27:45.301Z,83.10
2017-10-13T12:32:48.553Z,83.10
2017-10-13T12:37:51.758Z,82.90
2017-10-13T12:42:54.950Z,82.60
2017-10-13T12:47:58.165Z,82.90
2017-10-13T12:53:02.553Z,82.70
2017-10-13T12:58:05.755Z,82.20
2017-10-13T13:03:10.282Z,81.90
2017-10-13T13:08:14.346Z,81.60
2017-10-13T13:13:18.613Z,81.60
2017-10-13T13:18:24.181Z,82.20
2017-10-13T13:23:35.016Z,81.90
2017-10-13T13:28:38.234Z,81.50
2017-10-13T13:33:41.425Z,81.50
2017-10-13T13:38:47.000Z,81.50
2017-10-13T13:43:50.190Z,82.40
2017-10-13T13:48:53.377Z,82.40
2017-10-13T13:53:58.018Z,82.50
2017-10-13T13:59:07.269Z,83.70
2017-10-13T14:04:11.026Z,83.70
2017-10-13T14:09:14.651Z,84.30
2017-10-13T14:14:18.594Z,84.30
2017-10-13T14:19:21.975Z,86.00
2017-10-13T14:24:25.174Z,85.70
2017-10-13T14:29:28.382Z,85.30
2017-10-13T14:34:31.639Z,86.60
2017-10-13T14:39:36.676Z,86.70
2017-10-13T14:44:39.894Z,87.70
2017-10-13T14:49:43.101Z,87.80
2017-10-13T14:54:46.257Z,88.40
2017-10-13T14:59:49.637Z,87.10
2017-10-13T15:04:53.708Z,86.30
2017-10-13T15:09:56.958Z,86.30
2017-10-13T15:15:01.370Z,86.60
2017-10-13T15:20:04.580Z,87.10
2017-10-13T15:25:13.424Z,88.20
2017-10-13T15:30:22.209Z,87.20
2017-10-13T15:35:31.093Z,88.30
2017-10-13T15:40:39.909Z,88.40
2017-10-13T15:45:48.602Z,88.70
2017-10-13T15:50:58.205Z,88.40
2017-10-13T15:56:01.378Z,88.40
2017-10-13T16:01:04.590Z,89.30
2017-10-13T16:06:07.794Z,89.70
2017-10-13T16:11:11.143Z,89.70
2017-10-13T16:16:14.442Z,89.90
2017-10-13T16:21:17.621Z,90.30
2017-10-13T16:26:20.825Z,90.80
2017-10-13T16:31:24.013Z,91.20
2017-10-13T16:36:29.035Z,92.20
2017-10-13T16:41:32.271Z,91.40
2017-10-13T16:46:36.258Z,91.50
2017-10-13T16:51:39.478Z,91.50
2017-10-13T16:56:42.684Z,92.00
2017-10-13T17:01:46.118Z,93.30
2017-10-13T17:06:50.114Z,94.80
2017-10-13T17:11:53.293Z,94.90
2017-10-13T17:16:58.515Z,95.00
2017-10-13T17:22:02.470Z,94.90
2017-10-13T17:27:05.695Z,94.80
2017-10-13T17:32:08.937Z,95.30
2017-10-13T17:37:13.769Z,96.00
2017-10-13T17:42:17.760Z,98.70
2017-10-13T17:47:20.973Z,98.70
2017-10-13T17:52:24.198Z,99.70
2017-10-13T17:57:27.413Z,98.40
2017-10-13T18:02:30.622Z,99.90
2017-10-13T18:07:33.820Z,99.90
2017-10-13T18:12:37.012Z,99.90
2017-10-13T18:17:40.224Z,99.90
2017-10-13T18:22:43.442Z,99.90
2017-10-13T18:27:46.691Z,99.90
2017-10-13T18:32:50.545Z,99.90
2017-10-13T18:37:53.845Z,99.90
2017-10-13T18:42:57.114Z,99.90
2017-10-13T18:48:01.089Z,99.90
2017-10-13T18:53:04.282Z,99.90
2017-10-13T18:58:07.489Z,99.90
2017-10-13T19:03:10.884Z,99.90
2017-10-13T19:08:14.102Z,99.90
2017-10-13T19:13:17.316Z,99.90
2017-10-13T19:18:20.842Z,99.90
2017-10-13T19:23:24.043Z,99.90
2017-10-13T19:28:27.346Z,99.90
2017-10-13T19:33:30.626Z,99.90
2017-10-13T19:38:33.998Z,99.90
2017-10-13T19:43:38.558Z,99.90
2017-10-13T19:48:41.755Z,99.90
2017-10-13T19:53:45.728Z,99.90
2017-10-13T19:58:49.098Z,99.90
2017-10-13T20:03:52.471Z,99.90
2017-10-13T20:08:55.638Z,99.90
2017-10-13T20:13:58.920Z,99.90
2017-10-13T20:19:02.891Z,99.90
2017-10-13T20:24:06.093Z,99.90
2017-10-13T20:29:09.285Z,99.90
2017-10-13T20:34:12.491Z,99.90
2017-10-13T20:39:15.673Z,99.90
2017-10-13T20:44:19.750Z,99.90
2017-10-13T20:49:22.966Z,99.90
2017-10-13T20:54:26.166Z,99.90
2017-10-13T20:59:29.462Z,99.90
2017-10-13T21:04:32.699Z,99.90
2017-10-13T21:09:35.906Z,99.90
2017-10-13T21:14:39.120Z,99.90
2017-10-13T21:19:42.354Z,99.90
2017-10-13T21:24:46.291Z,99.90
2017-10-13T21:29:49.485Z,99.90
2017-10-13T21:34:53.694Z,99.90
2017-10-13T21:39:56.902Z,99.90
2017-10-13T21:45:00.125Z,99.90
2017-10-13T21:50:04.288Z,99.90
2017-10-13T21:55:07.630Z,99.90
2017-10-13T22:00:10.839Z,99.90
2017-10-13T22:05:14.039Z,99.90
2017-10-13T22:10:17.246Z,99.90
2017-10-13T22:15:20.627Z,99.90
2017-10-13T22:20:23.839Z,99.90
2017-10-13T22:25:27.044Z,99.90
2017-10-13T22:30:30.250Z,99.90
2017-10-13T22:35:33.447Z,99.90
2017-10-13T22:40:36.702Z,99.90
2017-10-13T22:45:40.040Z,99.90
2017-10-13T22:50:43.969Z,99.90
2017-10-13T22:55:47.222Z,99.90
2017-10-13T23:00:50.480Z,99.90
2017-10-13T23:05:54.541Z,99.90
2017-10-13T23:10:57.748Z,99.90
2017-10-13T23:16:00.955Z,99.90
2017-10-13T23:21:04.161Z,99.90
2017-10-13T23:26:07.374Z,99.90
2017-10-13T23:31:10.589Z,99.90
2017-10-13T23:36:13.790Z,99.90
2017-10-13T23:41:17.054Z,99.90
2017-10-13T23:46:21.011Z,99.90
2017-10-13T23:51:24.194Z,99.90
2017-10-13T23:56:27.405Z,99.90
